Sign in:
Email
 Password  save:
  
 Company Reports 
 
   
My Recent Searches
  Help
 
   
 
 
Get Institutions for : 
Liberty Media Interactive (LINTA)    
$29.65 0.03 (0.1%) as of 4:30 Wed 4/23


Download
     
Institutional Holders
Viewing Quarter :
  
Total Institutions: 390    8
Total shares held : 
412,780,586  
% of shares held : 
73.89%  
Changes In:
New/increased positions vs   
old/decreased positions : 
  -6  
Amount of shares held : 
-12,103,868  
% of shares held change : 
  -2.17%  
Quarter Price vs. Current Price:
Last Quarter's Starting Price
$29.21  
Last Quarter's Ending Price : 
$28.87  
Last Quarter's Average Price
$28.40  
Change from last quarter's     
avg. price to the last closing  : 
1.25 (4.4%)  




 
All Securities Held :
Positions
     Shares
% Of
Total Shares
New Positions :
39
 6,550,432
 1.59%
 
Increased Positions :
124
 21,566,273
 5.22%
 
Unchanged Positions :
89
 11,251,059
 2.73%
 
Decreased Positions :
138
-32,941,016
-7.98%
 
Closed Positions :
31
-7,279,557
-1.76%
 
Guru Positions :
2
28,282,793
 6.85%
 
View holdings for period: 
6-30-2012 View holdings for period: 
9-30-2012 View holdings for period: 
12-31-2012 View holdings for period: 
3-31-2013 View holdings for period: 
6-30-2013 View holdings for period: 
9-30-2013 View holdings for period: 
12-31-2013 View holdings for the current period

  Page 1 of 1  
Free Registration Required For Full Results


            Institution Name
Portfolio
Position
New/Closed
Position

Filing Date

Total Shares

Total Value

Change in Shares

File
   MACQUARIE GROUP LTD 8 - 2013-12-31 31,241,738 $916,945,000 1,394,233
   FMR LLC 203 - 2013-12-31 27,012,358 $792,813,000 -6,192,879
   DODGE & COX -- Notable Guru -- 45 - 2013-12-31 23,360,653 $685,635,000 -845,875
   HARRIS ASSOCIATES L P 24 - 2013-12-31 22,362,165 $656,330,000 35,762
   BROWN BROTHERS HARRIMAN & CO 15 - 2013-12-31 22,011,817 $646,047,000 -3,356,252
   CLEARBRIDGE ADVISORS LLC 49 - 2013-12-31 15,256,225 $447,770,000 855,838
   VANGUARD GROUP INC 587 - 2013-12-31 12,620,573 $370,414,000 -3,871
   STATE STREET CORP 433 - 2013-12-31 11,820,294 $346,931,000 1,460,824
   BLACKROCK INSTITUTIONAL TRUST COMPANY 318 - 2013-12-31 11,641,495 $341,678,000 203,968
   DAVIS SELECTED ADVISERS 37 - 2013-12-31 10,421,492 $305,871,000 -175,350
   GOLDMAN SACHS GROUP INC/ 201 - 2013-12-31 8,520,222 $250,068,000 -2,111,512
   MERITAGE GROUP LP 4 - 2013-12-31 8,342,471 $244,852,000 -1,694,093
   PRINCIPAL FINANCIAL GROUP INC 31 - 2013-12-31 8,131,402 $238,656,000 206,995
   BRAHMAN CAPITAL CORP. 4 - 2013-12-31 7,372,195 $216,374,000 1,274,800
   HORIZON KINETICS LLC 11 - 2013-12-31 7,307,497 $214,475,000 197,243
   ARTISAN PARTNERS LIMITED PARTNERSHIP 101 - 2013-12-31 7,066,907 $207,414,000 135,248
   INVESCO LTD 296 - 2013-12-31 6,894,747 $202,362,000 385,378
   RS INVESTMENT MANAGEMENT CO LLC 17 - 2013-12-31 6,437,389 $188,937,000 83,226
   DIMENSIONAL FUND ADVISORS INC 124 - 2013-12-31 5,674,934 $166,559,000 -58,032
   FPR PARTNERS LLC 7 - 2013-12-31 5,471,306 $160,583,000 -622,753
   WEITZ WALLACE R & CO -- Notable Guru -- 3 - 2013-12-31 4,922,140 $144,465,000 925,560
   TIAA CREF INVESTMENT MANAGEMENT LLC 240 - 2013-12-31 4,512,737 $132,449,000 1,491,580
   LOOMIS SAYLES & CO L P 46 - 2013-12-31 4,474,633 $131,330,000 -103,942
   WELLINGTON MANAGEMENT CO LLP 477 - 2013-12-31 3,987,323 $117,028,000 -691,832
   D E SHAW & CO INC 81 - 2013-12-31 3,796,618 $111,431,000 1,300,713
   BLACKROCK FUND ADVISORS 759 - 2013-12-31 3,790,761 $111,259,000 43,103
   NORTHERN TRUST CORP 447 - 2013-12-31 3,520,295 $103,320,000 48,909
   ALLIANCEBERNSTEIN L.P. 257 - 2013-12-31 3,321,239 $97,478,000 -1,230,522
   UNITED STATES STEEL & CARNEGIE PENSION FD 20 - 2013-12-31 3,106,172 $91,166,000 -2,009,946
   YACKTMAN ASSET MANAGEMENT CO/IL 36 - 2013-12-31 2,941,301 $86,327,000 -2,250
   MAKAIRA PARTNERS LLC 2 - 2013-12-31 2,908,165 $85,355,000 6,550
   BLACKROCK GROUP LTD 390 - 2013-12-31 2,773,109 $81,391,000 -702,920
   BANK OF NEW YORK MELLON CORP 656 - 2013-12-31 2,708,145 $79,484,000 -166,693
   OSTERWEIS CAPITAL MANAGEMENT INC 20 - 2013-12-31 2,702,876 $79,329,000 18,571
   FINDLAY PARK PARTNERS LLP 48 - 2013-12-31 2,572,856 $75,513,000 0
   PASSPORT CAPITAL, LLC 11 - 2013-12-31 2,531,112 $74,288,000 102,126
   AMERIPRISE FINANCIAL INC 395 - 2013-12-31 2,457,524 $72,129,000 -1,074,255
   GEODE CAPITAL MANAGEMENT LLC 362 - 2013-12-31 2,448,958 $71,867,000 199,064
   GAMCO INVESTORS INC ET AL 77 - 2013-12-31 2,426,189 $71,209,000 10,657
   LEGAL & GENERAL GROUP PLC 290 - 2013-12-31 2,242,877 $65,828,000 -34,035
   TEACHERS ADVISORS INC 163 - 2013-12-31 2,242,215 $65,809,000 461,787
   INTERNATIONAL VALUE ADVISERS, LLC 25 - 2013-12-31 2,097,110 $61,550,000 18,510
   FEDERATED INVESTORS INC /PA/ 110 - 2013-12-31 1,931,377 $56,686,000 -17,929
   SCHWAB CHARLES INVESTMENT MANAGEMENT INC 185 - 2013-12-31 1,925,079 $56,502,000 -1,163,131
   POLAR CAPITAL LLP 12 - 2013-12-31 1,790,475 $52,550,000 72,795
   CLOUGH CAPITAL PARTNERS L P 10 - 2013-12-31 1,757,686 $51,588,000 -201,100
   FAIRVIEW CAPITAL INVESTMENT MANAGEMENT 7 - 2013-12-31 1,698,826 $49,861,000 -474,025
   WHITE ELM CAPITAL, LLC 11 - 2013-12-31 1,668,150 $48,960,000 498,650
   ACADIAN ASSET MANAGEMENT LLC 97 - 2014-03-31 1,686,616 $48,691,000 -38,243
   LYRICAL ASSET MANAGEMENT LP 9 - 2013-12-31 1,655,293 $48,583,000 592,690
   CITADEL ADVISORS LLC 297 - 2013-12-31 1,411,191 $41,418,000 -288,571
   CALIFORNIA PUBLIC EMPLOYEES RETIREMENT SYSTEM 335 - 2014-03-31 1,445,350 $41,409,000 -183,300
   GABELLI FUNDS LLC 145 - 2013-12-31 1,363,900 $40,030,000 -3,000
   ASCEND CAPITAL LLC 20 - 2013-12-31 1,350,000 $39,623,000 1,350,000
   CORSAIR CAPITAL MANAGEMENT LLC 7 - 2013-12-31 1,331,727 $39,086,000 691,727
   EAGLE ASSET MANAGEMENT INC 158 - 2013-12-31 1,324,246 $38,866,000 867,357
   PARAMETRIC PORTFOLIO ASSOCIATES 224 - 2013-12-31 1,308,391 $38,401,000 135,378
   PRICE T ROWE ASSOCIATES INC /MD/ 921 - 2013-12-31 1,290,294 $37,870,000 -137,500
   SUMITOMO MITSUI TRUST HOLDINGS, INC. 300 - 2013-12-31 1,270,384 $37,273,000 -83,806
   TIGER EYE CAPITAL LLC 2 *New 2013-12-31 1,250,694 $36,708,000 1,250,694
   FRESHFORD CAPITAL MANAGEMENT, LLC 8 - 2013-12-31 1,242,675 $36,472,000 498,299
   UBS GLOBAL ASSET MANAGEMENT AMERICAS INC 436 - 2013-12-31 1,232,993 $36,189,000 -5,571
   LOCUST WOOD CAPITAL ADVISERS LLC 1 - 2013-12-31 1,210,766 $35,536,000 0
   WELLS FARGO & CO/MN 917 - 2013-12-31 1,195,788 $35,097,000 117,310
   FIRST MANHATTAN CO 81 - 2013-12-31 1,174,807 $34,480,000 -42,862
   SCOPUS ASSET MANAGEMENT LP 40 *New 2013-12-31 1,150,200 $33,758,000 1,150,200
   STONERISE CAPITAL MANAGEMENT, LLC 2 - 2013-12-31 1,100,000 $32,285,000 0
   MORGAN STANLEY 1016 - 2013-12-31 1,079,936 $31,697,000 573,272
   CREDIT SUISSE/ 535 - 2013-12-31 1,034,635 $30,367,000 60,940
   SAMLYN CAPITAL LLC 55 *New 2013-12-31 1,014,515 $29,776,000 1,014,515
   NEW SOUTH CAPITAL MANAGEMENT INC 43 - 2013-12-31 992,877 $29,141,000 -15,457
   IVORY INVESTMENT MANAGEMENT LP 20 - 2013-12-31 979,934 $28,761,000 -258,488
   STATE BOARD OF ADMINISTRATION OF FLORIDA RETIREMEN 231 - 2013-12-31 969,050 $28,442,000 -3,065
   NORTH RUN CAPITAL L P 12 - 2013-12-31 960,000 $28,176,000 -1,179,203
   CALIFORNIA STATE TEACHERS RETIREMENT SYSTEM 261 - 2013-12-31 959,082 $28,149,000 6,600
   WALLACE CAPITAL MANAGEMENT INC. 4 - 2013-12-31 927,744 $27,229,000 51,005
   RUSSELL FRANK CO/ 463 - 2013-12-31 923,751 $24,844,000 254,934
   LOS ANGELES CAPITAL MANAGEMENT & EQUITY RESEARCH I 126 - 2013-12-31 799,999 $23,480,000 -382,987
   BLACKROCK INC. 445 - 2013-12-31 799,805 $23,475,000 514,683
   JANUS CAPITAL MANAGEMENT LLC 520 - 2013-12-31 772,879 $22,684,000 -445,700
   OXFORD ASSET MANAGEMENT 14 - 2013-12-31 762,252 $22,372,000 516,287
   HIGHFIELDS CAPITAL MANAGEMENT LP 63 *New 2013-12-31 736,000 $21,602,000 736,000
   KENMARE CAPITAL PARTNERS LLC 4 - 2013-12-31 721,700 $21,182,000 0
   FOUNDATION ASSET MANAGEMENT, LLC 10 - 2013-12-31 705,651 $20,711,000 -120,787
   SG AMERICAS SECURITIES LLC 234 - 2013-12-31 704,440 $20,675,000 -136,259
   MARKSTON INTERNATIONAL LLC 19 - 2013-12-31 691,772 $20,304,000 -19,900
   MIZUHO TRUST & BANKING CO., LTD. 293 - 2013-12-31 706,841 $20,293,000 -17,287
   BNP PARIBAS ARBITRAGE SA 212 - 2013-12-31 652,248 $19,144,000 -5,886
   GREEN ARROW CAPITAL MANAGEMENT LLC 16 *New 2013-12-31 584,131 $17,144,000 584,131
   NATIXIS ASSET MANAGEMENT ADVISORS LP 81 - 2013-12-31 571,837 $16,784,000 -7,201
   BLACKROCK JAPAN CO LTD 309 - 2013-12-31 568,276 $16,679,000 -27,597
   J P MORGAN CHASE & CO 1316 - 2013-12-31 538,964 $15,819,000 -205,741
   RENAISSANCE TECHNOLOGIES LLC 590 - 2013-12-31 525,050 $15,410,000 -914,800
   Swiss National Bank 328 - 2013-12-31 523,748 $15,372,000 -18,600
   Napier Park Global Capital LLC 14 - 2013-12-31 514,562 $15,102,000 0
   MILLENNIUM MANAGEMENT LLC 425 - 2013-12-31 509,391 $14,951,000 198,944
   BLACKROCK ADVISORS LLC 632 - 2013-12-31 496,833 $14,582,000 430,784
   S&CO INC 15 - 2013-12-31 491,787 $14,434,000 -13,807
   BANK OF AMERICA CORP /DE/ 1179 - 2013-12-31 484,220 $14,211,000 88,432
   DELPHI MANAGEMENT INC /MA/ 3 - 2013-12-31 477,133 $14,004,000 -37,440

  100 Records found
  1    
  Page 1 of 1
Free Registration Required For Full Results